createdAt,value
2023-02-13T00:00:43.958Z,100988.66
2023-02-13T00:03:10.350Z,100985.09
2023-02-13T00:05:36.875Z,100985.09
2023-02-13T00:08:03.736Z,100952.59
2023-02-13T00:10:30.240Z,100936.13
2023-02-13T00:12:57.024Z,100931.72
2023-02-13T00:15:23.594Z,100933.50
2023-02-13T00:17:50.129Z,100933.66
2023-02-13T00:20:16.718Z,100933.66
2023-02-13T00:22:43.209Z,100941.84
2023-02-13T00:25:09.724Z,100946.38
2023-02-13T00:27:38.713Z,100941.34
2023-02-13T00:30:06.141Z,100939.00
2023-02-13T00:32:32.742Z,100944.50
2023-02-13T00:34:59.438Z,100944.72
2023-02-13T00:37:26.379Z,100942.31
2023-02-13T00:39:53.077Z,100950.41
2023-02-13T00:42:19.901Z,100952.16
2023-02-13T00:44:46.312Z,100953.09
2023-02-13T00:47:12.856Z,100942.81
2023-02-13T00:49:39.334Z,100947.34
2023-02-13T00:52:05.818Z,100956.94
2023-02-13T00:54:32.606Z,100956.22
2023-02-13T00:56:59.139Z,100953.75
2023-02-13T00:59:27.185Z,100959.22
2023-02-13T01:01:53.723Z,100960.34
2023-02-13T01:04:20.275Z,100955.09
2023-02-13T01:06:46.722Z,100946.38
2023-02-13T01:09:14.418Z,100953.31
2023-02-13T01:11:40.897Z,100952.47
2023-02-13T01:14:07.365Z,100943.66
2023-02-13T01:16:33.754Z,100945.44
2023-02-13T01:19:00.456Z,100942.13
2023-02-13T01:21:26.898Z,100938.78
2023-02-13T01:23:53.662Z,100940.47
2023-02-13T01:26:23.180Z,100940.63
2023-02-13T01:28:53.081Z,100939.16
2023-02-13T01:31:19.571Z,100935.81
2023-02-13T01:33:46.295Z,100929.00
2023-02-13T01:36:13.309Z,100937.84
2023-02-13T01:38:40.581Z,100937.09
2023-02-13T01:41:08.213Z,100938.00
2023-02-13T01:43:48.409Z,100942.53
2023-02-13T01:46:36.109Z,100934.81
2023-02-13T01:49:13.765Z,100941.91
2023-02-13T01:51:41.505Z,100932.41
2023-02-13T01:54:13.089Z,100930.78
2023-02-13T01:56:55.820Z,100928.16
2023-02-13T01:59:37.873Z,100929.97
2023-02-13T02:02:04.523Z,100924.81
2023-02-13T02:04:38.554Z,100925.72
2023-02-13T02:07:10.887Z,100932.69
2023-02-13T02:09:40.890Z,100926.59
2023-02-13T02:12:19.693Z,100921.47
2023-02-13T02:14:46.808Z,100920.41
2023-02-13T02:17:13.508Z,100921.63
2023-02-13T02:20:07.930Z,100918.22
2023-02-13T02:23:16.672Z,100918.41
2023-02-13T02:26:06.489Z,100914.22
2023-02-13T02:28:57.096Z,100909.91
2023-02-13T02:32:00.544Z,100910.09
2023-02-13T02:34:47.093Z,100911.94
2023-02-13T02:37:25.634Z,100920.78
2023-02-13T02:40:34.554Z,100914.72
2023-02-13T02:43:19.781Z,100910.44
2023-02-13T02:46:01.123Z,100913.06
2023-02-13T02:48:46.819Z,100913.06
2023-02-13T02:51:41.446Z,100915.81
2023-02-13T02:54:22.229Z,100912.34
2023-02-13T02:56:50.650Z,100910.63
2023-02-13T02:59:20.728Z,100917.72
2023-02-13T03:01:48.239Z,100912.50
2023-02-13T03:04:46.287Z,100911.44
2023-02-13T03:07:16.361Z,100917.72
2023-02-13T03:09:48.282Z,100914.31
2023-02-13T03:12:19.834Z,100907.50
2023-02-13T03:14:46.315Z,100913.72
2023-02-13T03:17:15.938Z,100918.13
2023-02-13T03:19:55.681Z,100919.09
2023-02-13T03:22:41.915Z,100913.16
2023-02-13T03:25:08.494Z,100922.69
2023-02-13T03:27:44.206Z,100923.63
2023-02-13T03:30:47.969Z,100925.44
2023-02-13T03:33:26.042Z,100929.75
2023-02-13T03:36:13.158Z,100931.66
2023-02-13T03:38:47.050Z,100940.44
2023-02-13T03:41:19.886Z,100931.78
2023-02-13T03:44:06.117Z,100938.03
2023-02-13T03:46:38.806Z,100944.13
2023-02-13T03:49:07.932Z,100945.00
2023-02-13T03:51:40.107Z,100940.66
2023-02-13T03:54:16.932Z,100953.75
2023-02-13T03:56:45.488Z,100959.03
2023-02-13T03:59:22.457Z,100950.34
2023-02-13T04:01:55.481Z,100946.78
2023-02-13T04:04:48.702Z,100960.81
2023-02-13T04:07:18.818Z,100956.41
2023-02-13T04:09:45.594Z,100958.09
2023-02-13T04:12:30.519Z,100957.25
2023-02-13T04:15:09.608Z,100958.84
2023-02-13T04:17:46.059Z,100962.38
2023-02-13T04:20:13.358Z,100962.38
2023-02-13T04:22:44.682Z,100966.03
2023-02-13T04:25:13.803Z,100970.44
2023-02-13T04:27:40.253Z,100966.03
2023-02-13T04:30:07.540Z,100969.47
2023-02-13T04:32:34.212Z,100978.09
2023-02-13T04:35:01.081Z,100970.34
2023-02-13T04:37:27.678Z,100969.47
2023-02-13T04:39:54.223Z,100972.25
2023-02-13T04:42:20.659Z,100971.41
2023-02-13T04:44:47.355Z,100967.81
2023-02-13T04:47:13.797Z,100962.75
2023-02-13T04:49:40.223Z,100967.88
2023-02-13T04:52:06.735Z,100970.22
2023-02-13T04:54:33.283Z,100971.28
2023-02-13T04:56:59.889Z,100968.59
2023-02-13T04:59:26.380Z,100972.84
2023-02-13T05:01:53.318Z,100973.69
2023-02-13T05:04:19.845Z,100967.63
2023-02-13T05:06:46.436Z,100966.03
2023-02-13T05:09:13.028Z,100967.81
2023-02-13T05:11:39.426Z,100973.22
2023-02-13T05:14:05.867Z,100981.09
2023-02-13T05:16:32.949Z,100978.66
2023-02-13T05:18:59.374Z,100985.00
2023-02-13T05:21:27.277Z,100981.59
2023-02-13T05:23:53.806Z,100986.09
2023-02-13T05:26:22.506Z,100986.19
2023-02-13T05:28:48.927Z,100991.41
2023-02-13T05:31:15.746Z,100993.34
2023-02-13T05:33:42.631Z,100988.97
2023-02-13T05:36:09.364Z,100998.53
2023-02-13T05:38:36.031Z,101002.72
2023-02-13T05:41:02.678Z,100995.66
2023-02-13T05:43:29.604Z,100998.25
2023-02-13T05:46:02.721Z,100993.22
2023-02-13T05:48:30.521Z,100989.88
2023-02-13T05:50:57.660Z,100999.56
2023-02-13T05:53:24.697Z,101002.38
2023-02-13T05:55:51.444Z,101000.53
2023-02-13T05:58:21.681Z,101002.38
2023-02-13T06:00:48.504Z,100997.25
2023-02-13T06:03:15.699Z,100999.78
2023-02-13T06:05:42.229Z,101000.59
2023-02-13T06:08:08.639Z,100995.41
2023-02-13T06:10:35.209Z,100998.03
2023-02-13T06:13:01.752Z,101001.69
2023-02-13T06:15:29.143Z,101005.28
2023-02-13T06:17:56.101Z,101004.25
2023-02-13T06:20:22.704Z,101005.16
2023-02-13T06:22:50.821Z,101008.56
2023-02-13T06:25:17.561Z,101020.00
2023-02-13T06:27:44.587Z,101015.00
2023-02-13T06:30:11.956Z,101022.28
2023-02-13T06:32:39.839Z,101020.69
2023-02-13T06:35:07.011Z,101030.53
2023-02-13T06:37:34.811Z,101036.59
2023-02-13T06:40:01.396Z,101032.38
2023-02-13T06:42:28.112Z,101037.72
2023-02-13T06:44:54.833Z,101037.59
2023-02-13T06:47:21.791Z,101028.88
2023-02-13T06:49:48.477Z,101031.19
2023-02-13T06:52:15.140Z,101035.34
2023-02-13T06:54:47.768Z,101031.91
2023-02-13T06:57:15.451Z,101036.28
2023-02-13T06:59:42.251Z,101038.00
2023-02-13T07:02:13.460Z,101032.66
2023-02-13T07:04:40.328Z,101027.25
2023-02-13T07:07:09.872Z,101028.09
2023-02-13T07:09:37.013Z,101019.19
2023-02-13T07:12:04.610Z,101024.41
2023-02-13T07:14:31.369Z,101021.34
2023-02-13T07:16:58.703Z,101020.25
2023-02-13T07:19:25.319Z,101016.59
2023-02-13T07:21:54.364Z,101022.63
2023-02-13T07:24:20.853Z,101019.16
2023-02-13T07:26:47.789Z,101032.28
2023-02-13T07:29:14.737Z,101030.81
2023-02-13T07:31:41.634Z,101026.94
2023-02-13T07:34:09.614Z,101025.00
2023-02-13T07:36:36.268Z,101014.34
2023-02-13T07:39:02.639Z,101012.38
2023-02-13T07:41:29.092Z,101011.38
2023-02-13T07:43:56.020Z,101013.91
2023-02-13T07:46:22.579Z,101014.22
2023-02-13T07:48:49.167Z,101012.47
2023-02-13T07:51:15.673Z,101008.00
2023-02-13T07:53:42.362Z,101004.03
2023-02-13T07:56:11.013Z,101004.09
2023-02-13T07:58:38.195Z,101006.09
2023-02-13T08:01:13.702Z,100998.44
2023-02-13T08:03:40.682Z,100996.66
2023-02-13T08:06:08.584Z,100994.63
2023-02-13T08:08:36.210Z,100998.41
2023-02-13T08:11:23.271Z,100998.19
2023-02-13T08:13:49.838Z,101002.28
2023-02-13T08:16:16.931Z,100999.47
2023-02-13T08:18:44.408Z,101002.13
2023-02-13T08:21:11.340Z,101022.03
2023-02-13T08:23:38.046Z,101047.22
2023-02-13T08:26:04.640Z,101087.47
2023-02-13T08:28:31.471Z,101127.06
2023-02-13T08:30:58.276Z,101160.72
2023-02-13T08:33:25.074Z,101202.59
2023-02-13T08:35:51.875Z,101228.81
2023-02-13T08:38:18.373Z,101257.38
2023-02-13T08:40:44.790Z,101285.16
2023-02-13T08:43:11.422Z,101314.56
2023-02-13T08:45:38.443Z,101331.25
2023-02-13T08:48:05.104Z,101314.84
2023-02-13T08:50:31.716Z,101315.97
2023-02-13T08:52:58.818Z,101286.47
2023-02-13T08:55:26.021Z,101273.38
2023-02-13T08:57:52.494Z,101258.56
2023-02-13T09:00:19.542Z,101258.44
2023-02-13T09:02:46.220Z,101268.41
2023-02-13T09:05:12.729Z,101264.47
2023-02-13T09:07:39.275Z,101250.31
2023-02-13T09:10:06.821Z,101219.63
2023-02-13T09:12:33.241Z,101197.41
2023-02-13T09:14:59.729Z,101192.91
2023-02-13T09:17:26.230Z,101197.91
2023-02-13T09:19:52.750Z,101213.50
2023-02-13T09:22:19.443Z,101202.03
2023-02-13T09:24:46.201Z,101170.47
2023-02-13T09:27:13.020Z,101174.06
2023-02-13T09:29:39.676Z,101172.28
2023-02-13T09:32:06.403Z,101163.66
2023-02-13T09:34:33.171Z,101142.78
2023-02-13T09:36:59.541Z,101137.31
2023-02-13T09:39:26.416Z,101088.78
2023-02-13T09:41:54.569Z,101022.66
2023-02-13T09:44:26.899Z,101020.66
2023-02-13T09:46:53.893Z,100999.31
2023-02-13T09:49:26.238Z,100931.91
2023-02-13T09:51:57.292Z,100930.19
2023-02-13T09:54:24.313Z,100931.06
2023-02-13T09:57:00.021Z,100920.19
2023-02-13T09:59:32.326Z,100910.63
2023-02-13T10:02:14.259Z,100926.25
2023-02-13T10:04:52.542Z,100938.41
2023-02-13T10:07:40.263Z,100939.94
2023-02-13T10:10:30.278Z,100936.63
2023-02-13T10:13:23.545Z,100893.16
2023-02-13T10:15:53.152Z,100912.09
2023-02-13T10:18:24.607Z,100899.19
2023-02-13T10:20:51.150Z,100880.72
2023-02-13T10:23:39.094Z,100856.72
2023-02-13T10:26:11.647Z,100834.47
2023-02-13T10:28:46.951Z,100823.72
2023-02-13T10:31:22.794Z,100834.03
2023-02-13T10:33:51.665Z,100817.75
2023-02-13T10:36:24.690Z,100830.31
2023-02-13T10:39:13.419Z,100839.56
2023-02-13T10:41:54.912Z,100833.41
2023-02-13T10:44:30.413Z,100833.63
2023-02-13T10:47:26.583Z,100826.69
2023-02-13T10:50:22.653Z,100811.69
2023-02-13T10:52:59.063Z,100801.34
2023-02-13T10:55:58.012Z,100790.84
2023-02-13T10:58:32.814Z,100770.72
2023-02-13T11:01:09.685Z,100772.97
2023-02-13T11:03:36.158Z,100763.75
2023-02-13T11:06:07.649Z,100744.44
2023-02-13T11:08:39.339Z,100752.16
2023-02-13T11:11:36.250Z,100736.97
2023-02-13T11:14:24.145Z,100745.34
2023-02-13T11:16:59.333Z,100751.63
2023-02-13T11:19:33.764Z,100755.72
2023-02-13T11:22:09.138Z,100756.25
2023-02-13T11:24:37.003Z,100742.75
2023-02-13T11:27:07.240Z,100747.38
2023-02-13T11:29:36.514Z,100747.97
2023-02-13T11:32:24.797Z,100744.06
2023-02-13T11:34:51.595Z,100738.72
2023-02-13T11:37:21.394Z,100742.63
2023-02-13T11:39:51.425Z,100744.31
2023-02-13T11:42:21.008Z,100733.97
2023-02-13T11:44:55.016Z,100729.66
2023-02-13T11:47:37.857Z,100721.00
2023-02-13T11:50:07.778Z,100722.25
2023-02-13T11:52:36.106Z,100722.00
2023-02-13T11:55:06.907Z,100721.97
2023-02-13T11:57:37.682Z,100725.72
2023-02-13T12:00:29.284Z,100716.22
2023-02-13T12:02:55.951Z,100716.81
2023-02-13T12:05:25.491Z,100717.22
2023-02-13T12:07:55.595Z,100712.72
2023-02-13T12:10:27.572Z,100720.44
2023-02-13T12:13:15.496Z,100712.59
2023-02-13T12:15:43.492Z,100715.38
2023-02-13T12:18:27.821Z,100702.06
2023-02-13T12:21:03.661Z,100701.38
2023-02-13T12:23:40.743Z,100698.13
2023-02-13T12:26:13.729Z,100695.75
2023-02-13T12:29:22.652Z,100694.06
2023-02-13T12:32:17.487Z,100694.78
2023-02-13T12:35:11.539Z,100692.13
2023-02-13T12:37:47.049Z,100691.47
2023-02-13T12:40:30.009Z,100678.47
2023-02-13T12:43:21.551Z,100681.44
2023-02-13T12:45:56.396Z,100670.50
2023-02-13T12:48:47.566Z,100672.84
2023-02-13T12:51:32.921Z,100683.13
2023-02-13T12:54:36.761Z,100684.25
2023-02-13T12:57:17.645Z,100681.28
2023-02-13T12:59:59.209Z,100679.16
2023-02-13T13:02:44.422Z,100693.84
2023-02-13T13:05:22.517Z,100687.19
2023-02-13T13:08:15.119Z,100681.47
2023-02-13T13:11:11.315Z,100681.53
2023-02-13T13:14:09.273Z,100677.16
2023-02-13T13:16:53.182Z,100675.03
2023-02-13T13:19:34.930Z,100679.50
2023-02-13T13:22:20.615Z,100675.00
2023-02-13T13:25:14.397Z,100679.69
2023-02-13T13:27:45.027Z,100670.97
2023-02-13T13:30:26.143Z,100673.53
2023-02-13T13:33:01.463Z,100673.44
2023-02-13T13:35:30.458Z,100676.38
2023-02-13T13:38:11.468Z,100678.09
2023-02-13T13:40:52.996Z,100681.53
2023-02-13T13:43:33.343Z,100678.09
2023-02-13T13:46:22.584Z,100669.28
2023-02-13T13:49:05.114Z,100669.16
2023-02-13T13:51:31.658Z,100663.00
2023-02-13T13:54:01.198Z,100661.59
2023-02-13T13:56:53.423Z,100664.44
2023-02-13T13:59:45.836Z,100667.97
2023-02-13T14:02:18.469Z,100669.75
2023-02-13T14:05:26.553Z,100673.19
2023-02-13T14:08:31.886Z,100674.75
2023-02-13T14:11:01.820Z,100670.56
2023-02-13T14:13:34.652Z,100673.94
2023-02-13T14:16:02.112Z,100675.41
2023-02-13T14:18:30.349Z,100675.41
2023-02-13T14:21:01.753Z,100665.91
2023-02-13T14:23:28.507Z,100668.66
2023-02-13T14:26:16.622Z,100669.94
2023-02-13T14:28:49.222Z,100674.50
2023-02-13T14:31:30.794Z,100695.16
2023-02-13T14:34:17.796Z,100708.56
2023-02-13T14:36:48.427Z,100715.00
2023-02-13T14:39:28.654Z,100715.84
2023-02-13T14:41:55.193Z,100713.47
2023-02-13T14:44:36.186Z,100721.94
2023-02-13T14:47:14.070Z,100721.91
2023-02-13T14:49:42.109Z,100734.06
2023-02-13T14:52:19.156Z,100720.91
2023-02-13T14:54:50.398Z,100718.66
2023-02-13T14:57:42.359Z,100717.81
2023-02-13T15:00:27.627Z,100719.28
2023-02-13T15:02:59.684Z,100720.63
2023-02-13T15:05:32.812Z,100728.44
2023-02-13T15:08:18.489Z,100736.66
2023-02-13T15:10:50.879Z,100747.41
2023-02-13T15:13:23.315Z,100738.00
2023-02-13T15:16:11.830Z,100749.38
2023-02-13T15:18:44.424Z,100761.38
2023-02-13T15:21:17.207Z,100748.97
2023-02-13T15:23:44.573Z,100758.13
2023-02-13T15:26:20.487Z,100756.31
2023-02-13T15:29:25.838Z,100760.88
2023-02-13T15:31:55.041Z,100776.81
2023-02-13T15:34:26.836Z,100781.84
2023-02-13T15:36:54.376Z,100792.44
2023-02-13T15:39:25.703Z,100806.41
2023-02-13T15:41:55.948Z,100815.88
2023-02-13T15:44:26.741Z,100825.97
2023-02-13T15:46:54.518Z,100817.63
2023-02-13T15:49:24.582Z,100821.03
2023-02-13T15:52:01.801Z,100818.59
2023-02-13T15:54:33.816Z,100823.00
2023-02-13T15:57:04.681Z,100838.78
2023-02-13T15:59:33.851Z,100824.66
2023-02-13T16:02:01.281Z,100833.38
2023-02-13T16:04:28.153Z,100836.09
2023-02-13T16:06:56.406Z,100825.34
2023-02-13T16:09:31.456Z,100842.84
2023-02-13T16:12:07.475Z,100859.81
2023-02-13T16:14:37.168Z,100848.69
2023-02-13T16:17:07.871Z,100847.84
2023-02-13T16:19:41.915Z,100851.38
2023-02-13T16:22:26.437Z,100862.09
2023-02-13T16:24:55.642Z,100881.47
2023-02-13T16:27:27.591Z,100878.41
2023-02-13T16:30:00.284Z,100905.69
2023-02-13T16:32:32.187Z,100927.47
2023-02-13T16:35:17.047Z,100959.34
2023-02-13T16:37:53.240Z,100972.31
2023-02-13T16:40:36.988Z,100985.44
2023-02-13T16:43:41.248Z,100991.66
2023-02-13T16:46:23.089Z,100991.72
2023-02-13T16:48:58.478Z,101018.25
2023-02-13T16:51:30.895Z,101041.75
2023-02-13T16:54:03.495Z,101044.59
2023-02-13T16:56:52.354Z,101053.47
2023-02-13T16:59:26.847Z,101076.19
2023-02-13T17:02:14.281Z,101067.31
2023-02-13T17:04:51.388Z,101074.31
2023-02-13T17:07:24.044Z,101102.38
2023-02-13T17:09:59.830Z,101119.72
2023-02-13T17:12:28.985Z,101122.25
2023-02-13T17:14:57.910Z,101124.03
2023-02-13T17:17:26.267Z,101121.09
2023-02-13T17:19:52.681Z,101134.75
2023-02-13T17:22:40.770Z,101164.13
2023-02-13T17:25:23.769Z,101186.44
2023-02-13T17:27:55.499Z,101193.56
2023-02-13T17:30:31.038Z,101208.06
2023-02-13T17:33:00.642Z,101207.03
2023-02-13T17:35:27.221Z,101199.97
2023-02-13T17:37:54.158Z,101186.78
2023-02-13T17:40:24.282Z,101180.56
2023-02-13T17:42:54.375Z,101197.75
2023-02-13T17:45:23.875Z,101216.38
2023-02-13T17:47:50.440Z,101235.44
2023-02-13T17:50:17.064Z,101246.97
2023-02-13T17:52:45.445Z,101264.75
2023-02-13T17:55:28.554Z,101287.69
2023-02-13T17:57:56.759Z,101276.03
2023-02-13T18:00:25.370Z,101281.84
2023-02-13T18:02:52.075Z,101294.41
2023-02-13T18:05:19.299Z,101308.91
2023-02-13T18:07:47.065Z,101324.88
2023-02-13T18:10:23.335Z,101340.78
2023-02-13T18:12:50.724Z,101354.84
2023-02-13T18:15:18.686Z,101363.75
2023-02-13T18:17:45.311Z,101376.41
2023-02-13T18:20:16.802Z,101387.97
2023-02-13T18:22:43.858Z,101393.28
2023-02-13T18:25:11.077Z,101402.44
2023-02-13T18:27:37.563Z,101414.03
2023-02-13T18:30:04.717Z,101422.09
2023-02-13T18:32:32.853Z,101425.66
2023-02-13T18:34:59.421Z,101418.53
2023-02-13T18:37:25.925Z,101435.41
2023-02-13T18:39:52.639Z,101445.31
2023-02-13T18:42:18.958Z,101450.66
2023-02-13T18:44:45.442Z,101459.34
2023-02-13T18:47:11.953Z,101467.25
2023-02-13T18:49:38.777Z,101469.16
2023-02-13T18:52:05.876Z,101472.94
2023-02-13T18:54:32.565Z,101483.56
2023-02-13T18:56:58.967Z,101482.78
2023-02-13T18:59:25.382Z,101493.22
2023-02-13T19:01:51.841Z,101501.34
2023-02-13T19:04:18.346Z,101492.75
2023-02-13T19:06:45.034Z,101498.34
2023-02-13T19:09:11.555Z,101511.31
2023-02-13T19:11:38.384Z,101513.94
2023-02-13T19:14:05.627Z,101521.91
2023-02-13T19:16:34.898Z,101527.09
2023-02-13T19:19:04.525Z,101535.06
2023-02-13T19:21:33.222Z,101538.75
2023-02-13T19:24:02.659Z,101535.75
2023-02-13T19:26:29.562Z,101546.69
2023-02-13T19:28:57.606Z,101555.78
2023-02-13T19:31:26.814Z,101569.19
2023-02-13T19:33:53.649Z,101585.00
2023-02-13T19:36:22.964Z,101600.63
2023-02-13T19:39:00.794Z,101620.63
2023-02-13T19:41:27.648Z,101630.00
2023-02-13T19:43:54.402Z,101623.78
2023-02-13T19:46:23.981Z,101627.28
2023-02-13T19:48:51.055Z,101614.19
2023-02-13T19:51:21.646Z,101625.72
2023-02-13T19:53:48.681Z,101612.88
2023-02-13T19:56:15.591Z,101620.84
2023-02-13T19:58:43.710Z,101614.19
2023-02-13T20:01:19.671Z,101605.78
2023-02-13T20:03:46.601Z,101598.31
2023-02-13T20:06:19.828Z,101606.69
2023-02-13T20:08:46.927Z,101623.44
2023-02-13T20:11:15.372Z,101641.16
2023-02-13T20:13:41.879Z,101642.13
2023-02-13T20:16:11.653Z,101650.22
2023-02-13T20:18:39.539Z,101670.53
2023-02-13T20:21:16.565Z,101685.47
2023-02-13T20:23:47.877Z,101691.78
2023-02-13T20:26:14.940Z,101662.16
2023-02-13T20:28:42.742Z,101166.53
2023-02-13T20:31:21.105Z,101146.41
2023-02-13T20:33:49.977Z,101145.84
2023-02-13T20:36:23.029Z,101133.97
2023-02-13T20:38:52.210Z,101119.91
2023-02-13T20:41:21.621Z,101126.25
2023-02-13T20:43:48.387Z,101132.84
2023-02-13T20:46:16.133Z,101127.13
2023-02-13T20:48:44.022Z,101136.13
2023-02-13T20:51:12.854Z,101139.00
2023-02-13T20:53:40.645Z,101134.03
2023-02-13T20:56:08.408Z,101133.28
2023-02-13T20:58:36.134Z,101127.19
2023-02-13T21:01:04.081Z,101120.41
2023-02-13T21:03:30.618Z,101113.59
2023-02-13T21:05:57.175Z,101116.50
2023-02-13T21:08:23.682Z,101112.38
2023-02-13T21:10:50.316Z,101108.19
2023-02-13T21:13:16.793Z,101107.47
2023-02-13T21:15:43.580Z,101116.63
2023-02-13T21:18:12.284Z,101110.72
2023-02-13T21:20:38.834Z,101108.16
2023-02-13T21:23:05.918Z,101093.44
2023-02-13T21:25:34.081Z,101095.19
2023-02-13T21:28:01.003Z,101079.56
2023-02-13T21:30:27.532Z,101082.34
2023-02-13T21:32:54.406Z,101064.88
2023-02-13T21:35:20.802Z,101077.44
2023-02-13T21:37:47.233Z,101067.88
2023-02-13T21:40:13.767Z,101072.41
2023-02-13T21:42:40.233Z,101069.13
2023-02-13T21:45:07.073Z,101059.44
2023-02-13T21:47:33.526Z,101050.06
2023-02-13T21:49:59.977Z,101044.09
2023-02-13T21:52:26.439Z,101038.78
2023-02-13T21:54:52.993Z,101032.03
2023-02-13T21:57:19.550Z,101038.28
2023-02-13T21:59:46.676Z,101025.22
2023-02-13T22:02:13.231Z,101030.69
2023-02-13T22:04:41.939Z,101029.03
2023-02-13T22:07:08.368Z,101027.47
2023-02-13T22:09:34.878Z,101024.97
2023-02-13T22:12:01.610Z,101016.13
2023-02-13T22:14:28.144Z,101019.59
2023-02-13T22:16:54.649Z,101021.38
2023-02-13T22:19:21.676Z,101029.31
2023-02-13T22:21:48.341Z,101025.09
2023-02-13T22:24:15.127Z,101022.28
2023-02-13T22:26:43.261Z,101019.00
2023-02-13T22:29:12.625Z,101031.50
2023-02-13T22:31:39.607Z,101022.84
2023-02-13T22:34:07.079Z,101030.63
2023-02-13T22:36:35.588Z,101031.69
2023-02-13T22:39:02.305Z,101026.66
2023-02-13T22:41:28.913Z,101024.22
2023-02-13T22:43:55.817Z,101030.44
2023-02-13T22:46:30.757Z,101026.34
2023-02-13T22:48:57.600Z,101032.44
2023-02-13T22:51:27.398Z,101024.75
2023-02-13T22:53:55.724Z,101027.59
2023-02-13T22:56:23.882Z,101023.38
2023-02-13T22:58:50.642Z,101033.84
2023-02-13T23:01:19.574Z,101028.69
2023-02-13T23:03:46.467Z,101016.50
2023-02-13T23:06:18.508Z,101013.94
2023-02-13T23:08:45.315Z,101013.09
2023-02-13T23:11:14.778Z,101006.94
2023-02-13T23:13:43.804Z,100985.91
2023-02-13T23:16:14.757Z,100978.09
2023-02-13T23:18:41.640Z,100972.13
2023-02-13T23:21:08.485Z,100968.28
2023-02-13T23:23:36.368Z,100967.50
2023-02-13T23:26:06.732Z,100960.75
2023-02-13T23:28:33.907Z,100955.91
2023-02-13T23:31:02.173Z,100954.13
2023-02-13T23:33:29.392Z,100946.66
2023-02-13T23:35:56.222Z,100944.16
2023-02-13T23:38:23.830Z,100945.16
2023-02-13T23:40:50.341Z,100950.47
2023-02-13T23:43:16.894Z,100947.88
2023-02-13T23:45:43.431Z,100955.03
2023-02-13T23:48:10.067Z,100946.44
2023-02-13T23:50:36.560Z,100948.16
2023-02-13T23:53:03.060Z,100956.00
2023-02-13T23:55:29.819Z,100948.16
2023-02-13T23:57:56.316Z,100944.94
